Belleville, MI

1:57 PM EDT on May 28, 2017 (GMT -0400)
Harmony Lane | | Change Station
Active Advisory: Severe Thunderstorm Watch

Elev 669 ft 42.22 °N, 83.48 °W | Updated 2 minutes ago

Mostly Cloudy
Mostly Cloudy
79.3 °F
Feels Like 81 °F
N
4.7
Wind Variable Wind from SSE
Gusts 6.8 mph

Today
High -- | Low -- °F
--% Chance of Precip.
Yesterday
High -- | Low -- °F
Precip. -- in
Pressure 29.70 in
Visibility 10.0 miles
Clouds Scattered Clouds 3700 ft
Heat Index 81 °F
Dew Point 65 °F
Humidity 63%
Rainfall 0.00 in
Snow Depth Not available.
6:02 AM 9:00 PM
Waxing Crescent, 12% visible
METAR KYIP 281753Z 10006KT 10SM SCT037 25/17 A2972 RMK AO2 SLP058 T02500172 10256 20161 58016
Pressure 29.70 in
Visibility 10.0 miles
Clouds Scattered Clouds 3700 ft
Heat Index 81 °F
Dew Point 65 °F
Humidity 63%
Rainfall 0.00 in
Snow Depth Not available.
6:02 AM 9:00 PM
Waxing Crescent, 12% visible
METAR KYIP 281753Z 10006KT 10SM SCT037 25/17 A2972 RMK AO2 SLP058 T02500172 10256 20161 58016

Get Your Daily Forecast Email!

Thanks for signing up!

Be on the lookout for a verification email in your inbox.

You'll start receiving severe weather alerts in your inbox..

×

10-Day Weather Forecast

Almanac

Astronomy

May. 28, 2017 Rise Set
Actual Time
Civil Twilight
Nautical Twilight
Astronomical Twilight
Moon
Length of Visible Light
Length of Day
Tomorrow will be .
, % of the Moon is Illuminated

Today's Extremes

State Highs State Lows

Community

WunderPhotos

Category 6

Welcome to Category 6. This is the collective home for Weather Underground's featured writeups by Dr. Jeff Masters (right), Bob Henson (left), Chris Burt, and other regular contributors.

Nearby

Air Quality

  Air Quality AQ Index Pollutant
Not available.

Snow Depth

Station Depth Elevation

Earthquake Activity

City Distance Mag. Time & Date
Minimum magnitude displayed is 2.5.

Coastal Water Temperatures

Place Temperature

Stations

Nearby Weather Stations

Station Location Temp. Windchill Dew Point Humidity Wind Precip. Elev Updated Type
                   

Watches & Warnings

Severe Thunderstorm Watch
Issued: 1:56 PM EDT May. 28, 2017 – National Weather Service


The National Weather Service has issued Severe Thunderstorm Watch
292 in effect until 8 PM EDT this evening for the following areas

In Michigan this watch includes 7 counties

In Southeast Michigan

Lenawee Livingston Macomb
Monroe Oakland Washtenaw
Wayne

This includes the cities of Adrian, Ann Arbor, Brighton, Canton,
Dearborn, Ferndale, Fowlerville, Howell, Lambertville,
Lincoln Park, Livonia, Monroe, Novi, Pontiac, Redford, Royal Oak,
Southfield, St. Clair Shores, Sterling Heights, Taylor,
Temperance, Troy, Warren, Waterford, and Westland.